Pagrindinis puslapis
METAR-TAF:

METAR-TAF

Oro uostai :

Bridžportas, Konektikutas, Jungtinės Amerikos Valstijos

platuma: 41-09-30N, ilguma: 073-07-44W, Aukštis: 3 m

Dabartinis oras

Ataskaita buvo paskelbta 33 minutes, ne 06:52 UTC
Vėjas 15 kt iš Vakarų su gūsio iki 24 kt
Temperatūra -1°C
Drėgmė 40%
Slėgis 1009 hPa
Matomumas: 16.1 km
Mažai debesys ne aukštis 6000 ft

METAR: KBDR 280652Z 26015G24KT 10SM FEW060 M01/M13 A2979 RMK AO2 PK WND 27028/0638 SLP087 T10061128

Laikas: 02:25 (07:25 UTC)

Prognozė

Ataskaita buvo paskelbta 1 valandą ir 46 minutes, ne 05:39 UTC
Prognozė galioja nuo 28 metu 06 UTC su 29 metu 06 UTC
Vėjas 14 kt iš Vakarų su gūsio iki 23 kt
Matomumas: 10 km
Išsisklaidę debesys ne aukštis 5000 ft
Nuo 28 metu 0700 UTC
Vėjas 15 kt iš Vakarų/Pietvakarių su gūsio iki 24 kt
Matomumas: 10 km
Mažai debesys ne aukštis 5000 ft
Nuo 28 metu 2300 UTC
Vėjas 9 kt iš Vakarų
Matomumas: 10 km
Mažai debesys ne aukštis 25000 ft

TAF: KBDR 280539Z 2806/2906 27014G23KT P6SM SCT050 FM280700 25015G24KT P6SM FEW050 FM282300 26009KT P6SM FEW250

Orai ataskaitas ir orų prognozės (METAR, TAF).

turimą stotys yra geltonos ir raudonos taškus žemėlapyje.

Perkelti pele per norėdami pamatyti stoties vardą.

Tada spustelėkite, norėdami matyti oro stebėjimo ir prognozės.

Norėdami pakeisti žemėlapį: spustelėkite ant žalios mygtukų su juodo kryžiaus žemyn,; žalią mygtuką su brūkšneliu, jei norite nutolinti; arba žalių rodyklių gretimoms žemėlapius.


METAR-TAF: